createdAt,value
2023-03-13T00:04:33.890Z,97529.16
2023-03-13T00:09:35.813Z,97522.88
2023-03-13T00:14:37.721Z,97532.25
2023-03-13T00:19:40.704Z,97524.50
2023-03-13T00:24:42.583Z,97527.72
2023-03-13T00:29:44.966Z,97529.97
2023-03-13T00:34:46.840Z,97527.41
2023-03-13T00:39:49.776Z,97535.78
2023-03-13T00:44:51.859Z,97530.47
2023-03-13T00:49:53.804Z,97538.06
2023-03-13T00:54:55.717Z,97528.38
2023-03-13T00:59:57.610Z,97534.19
2023-03-13T01:05:00.598Z,97530.47
2023-03-13T01:10:02.462Z,97527.72
2023-03-13T01:15:04.733Z,97512.22
2023-03-13T01:20:08.095Z,97511.41
2023-03-13T01:25:11.112Z,97500.13
2023-03-13T01:30:13.350Z,97496.56
2023-03-13T01:35:15.579Z,97486.41
2023-03-13T01:40:17.498Z,97482.22
2023-03-13T01:45:50.360Z,97491.72
2023-03-13T01:50:57.156Z,97482.22
2023-03-13T01:56:06.810Z,97475.09
2023-03-13T02:01:10.070Z,97470.75
2023-03-13T02:06:12.843Z,97472.53
2023-03-13T02:11:35.781Z,97471.88
2023-03-13T02:16:38.851Z,97458.97
2023-03-13T02:21:50.413Z,97454.28
2023-03-13T02:26:52.512Z,97447.03
2023-03-13T02:31:54.863Z,97449.78
2023-03-13T02:37:00.238Z,97446.72
2023-03-13T02:42:03.925Z,97443.19
2023-03-13T02:47:10.005Z,97441.88
2023-03-13T02:52:14.528Z,97445.75
2023-03-13T02:57:18.398Z,97448.63
2023-03-13T03:02:21.251Z,97432.81
2023-03-13T03:07:23.550Z,97436.69
2023-03-13T03:12:26.750Z,97432.16
2023-03-13T03:17:28.761Z,97429.59
2023-03-13T03:22:30.832Z,97431.19
2023-03-13T03:27:32.730Z,97416.66
2023-03-13T03:32:34.863Z,97409.72
2023-03-13T03:37:37.604Z,97392.28
2023-03-13T03:42:40.612Z,97384.38
2023-03-13T03:47:42.673Z,97378.06
2023-03-13T03:52:44.689Z,97363.03
2023-03-13T03:57:47.084Z,97359.16
2023-03-13T04:02:57.577Z,97341.72
2023-03-13T04:07:59.436Z,97335.56
2023-03-13T04:13:02.096Z,97320.72
2023-03-13T04:18:05.323Z,97311.97
2023-03-13T04:23:07.903Z,97304.88
2023-03-13T04:28:09.840Z,97299.38
2023-03-13T04:33:17.667Z,97297.41
2023-03-13T04:38:25.588Z,97293.69
2023-03-13T04:43:37.700Z,97282.38
2023-03-13T04:48:58.022Z,97279.47
2023-03-13T04:54:23.023Z,97272.16
2023-03-13T04:59:35.257Z,97257.94
2023-03-13T05:04:55.605Z,97258.56
2023-03-13T05:10:16.171Z,97242.09
2023-03-13T05:15:41.343Z,97228.19
2023-03-13T05:21:21.768Z,97213.31
2023-03-13T05:26:42.166Z,97203.44
2023-03-13T05:32:00.982Z,97185.34
2023-03-13T05:37:20.725Z,97191.31
2023-03-13T05:42:40.960Z,97176.28
2023-03-13T05:48:21.471Z,97174.97
2023-03-13T05:53:46.692Z,97161.34
2023-03-13T05:59:11.257Z,97147.06
2023-03-13T06:04:32.426Z,97139.59
2023-03-13T06:09:34.591Z,97143.44
2023-03-13T06:14:38.108Z,97128.38
2023-03-13T06:19:51.957Z,97119.28
2023-03-13T06:24:53.818Z,97126.94
2023-03-13T06:29:55.791Z,97117.50
2023-03-13T06:34:57.638Z,97109.19
2023-03-13T06:39:59.713Z,97095.09
2023-03-13T06:45:03.657Z,97090.13
2023-03-13T06:50:05.963Z,97090.66
2023-03-13T06:55:08.598Z,97085.03
2023-03-13T07:00:15.448Z,97073.25
2023-03-13T07:05:17.994Z,97070.06
2023-03-13T07:10:20.043Z,97073.88
2023-03-13T07:15:35.088Z,97063.69
2023-03-13T07:20:37.107Z,97045.13
2023-03-13T07:25:38.950Z,97035.28
2023-03-13T07:30:40.868Z,97028.41
2023-03-13T07:35:49.462Z,97022.22
2023-03-13T07:40:54.063Z,97012.06
2023-03-13T07:45:58.917Z,96999.50
2023-03-13T07:51:01.322Z,96990.94
2023-03-13T07:56:10.101Z,96983.78
2023-03-13T08:01:19.807Z,96968.06
2023-03-13T08:06:26.708Z,96951.00
2023-03-13T08:11:29.826Z,96946.63
2023-03-13T08:16:34.706Z,96967.75
2023-03-13T08:21:38.357Z,96960.06
2023-03-13T08:26:42.618Z,96966.28
2023-03-13T08:31:49.206Z,96984.63
2023-03-13T08:36:53.029Z,96980.69
2023-03-13T08:41:54.905Z,96980.94
2023-03-13T08:46:57.107Z,96996.16
2023-03-13T08:51:59.014Z,97000.81
2023-03-13T08:57:00.857Z,97005.06
2023-03-13T09:02:03.418Z,97015.28
2023-03-13T09:07:05.411Z,96988.25
2023-03-13T09:12:07.956Z,96973.53
2023-03-13T09:17:10.850Z,96969.38
2023-03-13T09:22:12.813Z,96960.44
2023-03-13T09:27:14.775Z,96958.44
2023-03-13T09:32:17.132Z,96982.34
2023-03-13T09:37:19.067Z,96997.47
2023-03-13T09:42:24.414Z,96985.09
2023-03-13T09:47:57.804Z,96981.50
2023-03-13T09:53:08.054Z,96962.03
2023-03-13T09:58:28.572Z,96958.19
2023-03-13T10:03:52.135Z,96953.06
2023-03-13T10:08:55.066Z,96944.91
2023-03-13T10:14:05.968Z,96956.13
2023-03-13T10:19:28.033Z,96948.38
2023-03-13T10:24:38.356Z,96943.19
2023-03-13T10:29:40.521Z,96934.00
2023-03-13T10:34:59.842Z,96924.44
2023-03-13T10:40:25.099Z,96919.44
2023-03-13T10:45:31.069Z,96915.84
2023-03-13T10:50:35.014Z,96928.25
2023-03-13T10:55:44.643Z,96929.63
2023-03-13T11:00:46.641Z,96924.63
2023-03-13T11:06:00.132Z,96929.22
2023-03-13T11:11:17.360Z,96922.03
2023-03-13T11:16:22.790Z,96935.03
2023-03-13T11:21:53.464Z,96930.03
2023-03-13T11:27:29.405Z,96940.22
2023-03-13T11:32:56.383Z,96938.81
2023-03-13T11:38:00.583Z,96946.03
2023-03-13T11:43:25.969Z,96946.22
2023-03-13T11:48:37.176Z,96954.22
2023-03-13T11:54:05.312Z,96940.03
2023-03-13T11:59:45.485Z,96941.03
2023-03-13T12:05:13.988Z,96928.03
2023-03-13T12:10:21.942Z,96933.63
2023-03-13T12:15:30.016Z,96908.44
2023-03-13T12:20:31.817Z,96904.81
2023-03-13T12:26:00.360Z,96888.97
2023-03-13T12:31:02.398Z,96872.34
2023-03-13T12:36:43.185Z,96848.25
2023-03-13T12:42:25.949Z,96821.50
2023-03-13T12:47:48.981Z,96812.03
2023-03-13T12:53:02.352Z,96817.97
2023-03-13T12:58:16.344Z,96820.53
2023-03-13T13:03:17.992Z,96829.09
2023-03-13T13:08:26.526Z,96823.81
2023-03-13T13:13:32.080Z,96815.75
2023-03-13T13:18:34.996Z,96839.94
2023-03-13T13:23:46.566Z,96824.00
2023-03-13T13:28:48.521Z,96815.56
2023-03-13T13:33:50.505Z,96800.44
2023-03-13T13:38:52.842Z,96783.91
2023-03-13T13:44:26.976Z,96786.66
2023-03-13T13:49:34.639Z,96793.31
2023-03-13T13:54:48.316Z,96786.72
2023-03-13T14:00:07.325Z,96786.72
2023-03-13T14:05:27.206Z,96802.16
2023-03-13T14:10:47.133Z,96816.56
2023-03-13T14:15:53.404Z,96817.16
2023-03-13T14:20:58.413Z,96815.69
2023-03-13T14:26:13.508Z,96805.63
2023-03-13T14:31:51.682Z,96788.16
2023-03-13T14:37:04.509Z,96780.63
2023-03-13T14:42:18.338Z,96769.50
2023-03-13T14:47:30.778Z,96765.50
2023-03-13T14:52:34.145Z,96775.72
2023-03-13T14:57:36.648Z,96776.31
2023-03-13T15:02:38.914Z,96770.72
2023-03-13T15:08:08.874Z,96765.16
2023-03-13T15:13:33.542Z,96770.81
2023-03-13T15:18:35.414Z,96774.06
2023-03-13T15:23:37.368Z,96770.53
2023-03-13T15:28:39.232Z,96753.72
2023-03-13T15:33:42.183Z,96743.75
2023-03-13T15:38:43.964Z,96751.00
2023-03-13T15:43:47.414Z,96740.19
2023-03-13T15:48:51.443Z,96723.19
2023-03-13T15:53:54.419Z,96714.34
2023-03-13T15:58:56.623Z,96691.25
2023-03-13T16:04:00.327Z,96687.41
2023-03-13T16:09:05.882Z,96681.75
2023-03-13T16:14:07.771Z,96662.72
2023-03-13T16:19:09.814Z,96655.56
2023-03-13T16:24:11.692Z,96637.41
2023-03-13T16:29:15.333Z,96635.31
2023-03-13T16:34:18.400Z,96629.41
2023-03-13T16:39:20.283Z,96617.81
2023-03-13T16:44:22.204Z,96609.66
2023-03-13T16:49:24.057Z,96605.91
2023-03-13T16:54:25.905Z,96595.78
2023-03-13T16:59:28.776Z,96583.28
2023-03-13T17:04:30.673Z,96588.19
2023-03-13T17:09:32.534Z,96585.88
2023-03-13T17:14:34.433Z,96582.34
2023-03-13T17:19:36.203Z,96579.94
2023-03-13T17:24:38.057Z,96578.38
2023-03-13T17:29:40.346Z,96573.16
2023-03-13T17:34:42.563Z,96578.81
2023-03-13T17:39:45.584Z,96570.19
2023-03-13T17:44:47.464Z,96572.00
2023-03-13T17:49:49.666Z,96561.59
2023-03-13T17:54:51.602Z,96573.81
2023-03-13T17:59:53.482Z,96551.75
2023-03-13T18:04:56.257Z,96559.34
2023-03-13T18:09:58.153Z,96539.53
2023-03-13T18:14:59.988Z,96538.16
2023-03-13T18:20:01.967Z,96517.19
2023-03-13T18:25:08.245Z,96521.25
2023-03-13T18:30:22.635Z,96523.28
2023-03-13T18:35:24.601Z,96504.03
2023-03-13T18:40:29.354Z,96501.44
2023-03-13T18:45:31.549Z,96497.16
2023-03-13T18:50:33.914Z,96490.28
2023-03-13T18:55:37.970Z,96484.66
2023-03-13T19:00:39.917Z,96471.41
2023-03-13T19:05:41.791Z,96475.81
2023-03-13T19:10:43.675Z,96468.00
2023-03-13T19:15:45.616Z,96469.03
2023-03-13T19:20:47.753Z,96467.44
2023-03-13T19:25:49.651Z,96491.22
2023-03-13T19:30:51.497Z,96554.06
2023-03-13T19:35:53.491Z,96629.94
2023-03-13T19:40:55.350Z,96657.25
2023-03-13T19:45:57.330Z,96649.81
2023-03-13T19:50:59.315Z,96652.09
2023-03-13T19:56:01.282Z,96637.19
2023-03-13T20:01:16.443Z,96611.88
2023-03-13T20:06:39.789Z,96597.75
2023-03-13T20:11:41.783Z,96584.66
2023-03-13T20:16:45.561Z,96576.75
2023-03-13T20:21:52.296Z,96565.25
2023-03-13T20:26:55.798Z,96552.75
2023-03-13T20:32:01.460Z,96535.03
2023-03-13T20:37:03.949Z,96513.06
2023-03-13T20:42:08.450Z,96492.50
2023-03-13T20:47:10.353Z,96475.28
2023-03-13T20:52:12.184Z,96450.91
2023-03-13T20:57:17.190Z,96434.72
2023-03-13T21:02:19.076Z,96430.75
2023-03-13T21:07:21.130Z,96429.16
2023-03-13T21:12:23.041Z,96434.78
2023-03-13T21:17:26.296Z,96425.38
2023-03-13T21:22:31.303Z,96435.78
2023-03-13T21:27:33.889Z,96441.56
2023-03-13T21:32:39.892Z,96441.56
2023-03-13T21:37:44.110Z,96429.56
2023-03-13T21:42:45.989Z,96409.00
2023-03-13T21:47:49.176Z,96402.22
2023-03-13T21:52:51.313Z,96406.03
2023-03-13T21:57:53.232Z,96398.03
2023-03-13T22:02:55.146Z,96404.03
2023-03-13T22:07:58.084Z,96404.81
2023-03-13T22:12:59.856Z,96427.19
2023-03-13T22:18:01.671Z,96453.97
2023-03-13T22:23:03.574Z,96467.97
2023-03-13T22:28:05.536Z,96446.00
2023-03-13T22:33:08.056Z,96437.06
2023-03-13T22:38:10.389Z,96431.28
2023-03-13T22:43:12.393Z,96428.09
2023-03-13T22:48:14.344Z,96460.28
2023-03-13T22:53:16.333Z,96488.25
2023-03-13T22:58:18.301Z,96484.50
2023-03-13T23:03:20.274Z,96495.09
2023-03-13T23:08:22.993Z,96493.72
2023-03-13T23:13:25.967Z,96472.34
2023-03-13T23:18:28.648Z,96459.59
2023-03-13T23:23:31.923Z,96444.78
2023-03-13T23:28:37.488Z,96440.19
2023-03-13T23:33:42.514Z,96408.81
2023-03-13T23:38:52.047Z,96375.84
2023-03-13T23:43:53.991Z,96343.66
2023-03-13T23:48:58.245Z,96301.53
2023-03-13T23:54:00.833Z,96223.28
2023-03-13T23:59:02.899Z,96222.13
